Aiken, Texas
Current Conditions -  °F | °C
As of 1:55 PM on Friday 24 Oct 2014 (Local Time) from KPVW Reporting Station
Clear Clear  
Wind Chill: 82°   Ceiling: Unl
Heat Index: 82°   Visibility: 10mi
Dew Point: 53°   Wind: 14mph
Humidity: 38%   Direction: 240°WSW
Pressure: 30.14"   Gusts: NA
Location:  34.14°N, 101.53°W
Report Text: KPVW 241855Z AUTO 24012KT 10SM CLR 28/12 A3014 RMK AO2 T02750118
Loading
Personal Weather Stations






























Interactive Weather Map
Tropical Storm Tracking
New forecast layout! Learn more

10-Day Weather Forecast

Advertisements
Track Severe Weather on mobile